sensor_id;sensor_type;location;lat;lon;timestamp;pressure;altitude;pressure_sealevel;temperature;humidity
80323;BME280;69636;52.372;13.610;2023-08-07T00:02:23;100019.41;;;13.24;100.00
80323;BME280;69636;52.372;13.610;2023-08-07T00:04:51;100022.06;;;13.24;100.00
80323;BME280;69636;52.372;13.610;2023-08-07T00:07:18;100010.75;;;13.22;100.00
80323;BME280;69636;52.372;13.610;2023-08-07T00:09:45;100016.72;;;13.24;100.00
80323;BME280;69636;52.372;13.610;2023-08-07T00:12:12;100019.19;;;13.25;100.00
80323;BME280;69636;52.372;13.610;2023-08-07T00:14:40;100018.38;;;13.25;100.00
80323;BME280;69636;52.372;13.610;2023-08-07T00:17:07;100012.22;;;13.24;100.00
80323;BME280;69636;52.372;13.610;2023-08-07T00:19:36;100010.56;;;13.23;100.00
80323;BME280;69636;52.372;13.610;2023-08-07T00:22:04;100011.41;;;13.24;100.00
80323;BME280;69636;52.372;13.610;2023-08-07T00:24:32;100001.13;;;13.21;100.00
80323;BME280;69636;52.372;13.610;2023-08-07T00:26:59;99997.81;;;13.19;100.00
80323;BME280;69636;52.372;13.610;2023-08-07T00:29:26;99998.81;;;13.18;100.00
80323;BME280;69636;52.372;13.610;2023-08-07T00:31:55;99991.66;;;13.18;100.00
80323;BME280;69636;52.372;13.610;2023-08-07T00:34:22;99985.50;;;13.18;100.00
80323;BME280;69636;52.372;13.610;2023-08-07T00:36:53;99994.97;;;13.20;100.00
80323;BME280;69636;52.372;13.610;2023-08-07T00:39:21;99987.53;;;13.16;100.00
80323;BME280;69636;52.372;13.610;2023-08-07T00:41:49;99990.81;;;13.18;100.00
80323;BME280;69636;52.372;13.610;2023-08-07T00:44:16;99986.31;;;13.18;100.00
80323;BME280;69636;52.372;13.610;2023-08-07T00:46:43;99984.47;;;13.19;100.00
80323;BME280;69636;52.372;13.610;2023-08-07T00:49:12;99992.47;;;13.19;100.00
80323;BME280;69636;52.372;13.610;2023-08-07T00:51:40;99993.50;;;13.18;100.00
80323;BME280;69636;52.372;13.610;2023-08-07T00:54:10;99999.00;;;13.16;100.00
80323;BME280;69636;52.372;13.610;2023-08-07T00:56:39;100000.19;;;13.14;100.00
80323;BME280;69636;52.372;13.610;2023-08-07T00:59:08;99998.53;;;13.13;100.00
80323;BME280;69636;52.372;13.610;2023-08-07T01:01:36;100000.53;;;13.11;100.00
80323;BME280;69636;52.372;13.610;2023-08-07T01:04:03;99993.75;;;13.08;100.00
80323;BME280;69636;52.372;13.610;2023-08-07T01:06:31;99998.25;;;13.08;100.00
80323;BME280;69636;52.372;13.610;2023-08-07T01:09:00;99998.53;;;13.13;100.00
80323;BME280;69636;52.372;13.610;2023-08-07T01:11:34;99998.53;;;13.13;100.00
80323;BME280;69636;52.372;13.610;2023-08-07T01:14:08;100000.47;;;13.19;100.00
80323;BME280;69636;52.372;13.610;2023-08-07T01:16:42;100007.81;;;13.17;100.00
80323;BME280;69636;52.372;13.610;2023-08-07T01:19:19;99995.78;;;13.21;100.00
80323;BME280;69636;52.372;13.610;2023-08-07T01:21:49;99995.34;;;13.17;100.00
80323;BME280;69636;52.372;13.610;2023-08-07T01:24:17;99999.50;;;13.27;100.00
80323;BME280;69636;52.372;13.610;2023-08-07T01:26:45;99989.66;;;13.27;100.00
80323;BME280;69636;52.372;13.610;2023-08-07T01:29:17;99985.34;;;13.26;100.00
80323;BME280;69636;52.372;13.610;2023-08-07T01:31:53;99981.31;;;13.30;100.00
80323;BME280;69636;52.372;13.610;2023-08-07T01:34:22;99966.97;;;13.31;100.00
80323;BME280;69636;52.372;13.610;2023-08-07T01:36:54;99969.25;;;13.34;100.00
80323;BME280;69636;52.372;13.610;2023-08-07T01:39:24;99972.16;;;13.39;100.00
80323;BME280;69636;52.372;13.610;2023-08-07T01:41:51;99970.59;;;13.45;100.00
80323;BME280;69636;52.372;13.610;2023-08-07T01:44:19;99977.19;;;13.49;100.00
80323;BME280;69636;52.372;13.610;2023-08-07T01:46:46;99979.88;;;13.49;100.00
80323;BME280;69636;52.372;13.610;2023-08-07T01:49:15;99970.63;;;13.51;100.00
80323;BME280;69636;52.372;13.610;2023-08-07T01:51:43;99969.00;;;13.50;100.00
80323;BME280;69636;52.372;13.610;2023-08-07T01:54:13;99967.34;;;13.49;100.00
80323;BME280;69636;52.372;13.610;2023-08-07T01:56:40;99968.59;;;13.53;100.00
80323;BME280;69636;52.372;13.610;2023-08-07T01:59:08;99977.00;;;13.50;100.00
80323;BME280;69636;52.372;13.610;2023-08-07T02:01:35;99962.03;;;13.49;100.00
80323;BME280;69636;52.372;13.610;2023-08-07T02:04:06;99969.38;;;13.47;100.00
80323;BME280;69636;52.372;13.610;2023-08-07T02:06:34;99960.38;;;13.48;100.00
80323;BME280;69636;52.372;13.610;2023-08-07T02:09:01;99967.09;;;13.44;100.00
80323;BME280;69636;52.372;13.610;2023-08-07T02:11:30;99967.84;;;13.38;100.00
80323;BME280;69636;52.372;13.610;2023-08-07T02:13:58;99968.50;;;13.40;100.00
80323;BME280;69636;52.372;13.610;2023-08-07T02:16:25;99974.59;;;13.34;100.00
80323;BME280;69636;52.372;13.610;2023-08-07T02:18:53;99976.59;;;13.32;100.00
80323;BME280;69636;52.372;13.610;2023-08-07T02:21:20;99977.63;;;13.31;100.00
80323;BME280;69636;52.372;13.610;2023-08-07T02:23:47;99980.28;;;13.31;100.00
80323;BME280;69636;52.372;13.610;2023-08-07T02:26:17;99988.03;;;13.26;100.00
80323;BME280;69636;52.372;13.610;2023-08-07T02:28:46;99984.97;;;13.29;100.00
80323;BME280;69636;52.372;13.610;2023-08-07T02:31:16;99990.69;;;13.26;100.00
80323;BME280;69636;52.372;13.610;2023-08-07T02:33:43;99996.41;;;13.23;100.00
80323;BME280;69636;52.372;13.610;2023-08-07T02:36:11;100000.34;;;13.27;100.00
80323;BME280;69636;52.372;13.610;2023-08-07T02:38:39;99998.69;;;13.26;100.00
80323;BME280;69636;52.372;13.610;2023-08-07T02:41:08;100001.16;;;13.28;100.00
80323;BME280;69636;52.372;13.610;2023-08-07T02:43:35;99998.06;;;13.24;100.00
80323;BME280;69636;52.372;13.610;2023-08-07T02:46:06;100002.75;;;13.22;100.00
80323;BME280;69636;52.372;13.610;2023-08-07T02:48:34;100009.75;;;13.23;100.00
80323;BME280;69636;52.372;13.610;2023-08-07T02:51:01;100006.06;;;13.24;100.00
80323;BME280;69636;52.372;13.610;2023-08-07T02:53:29;100006.06;;;13.24;100.00
80323;BME280;69636;52.372;13.610;2023-08-07T02:55:56;100003.00;;;13.27;100.00
80323;BME280;69636;52.372;13.610;2023-08-07T02:58:24;99995.63;;;13.29;100.00
80323;BME280;69636;52.372;13.610;2023-08-07T03:00:51;100005.09;;;13.32;100.00
80323;BME280;69636;52.372;13.610;2023-08-07T03:03:20;100006.19;;;13.37;100.00
80323;BME280;69636;52.372;13.610;2023-08-07T03:05:48;100005.81;;;13.40;100.00
80323;BME280;69636;52.372;13.610;2023-08-07T03:08:15;100004.50;;;13.51;100.00
80323;BME280;69636;52.372;13.610;2023-08-07T03:10:49;100013.28;;;13.51;100.00
80323;BME280;69636;52.372;13.610;2023-08-07T03:13:17;100012.69;;;13.49;100.00
80323;BME280;69636;52.372;13.610;2023-08-07T03:15:45;100004.69;;;13.49;100.00
80323;BME280;69636;52.372;13.610;2023-08-07T03:18:12;100010.06;;;13.56;100.00
80323;BME280;69636;52.372;13.610;2023-08-07T03:20:41;99997.19;;;13.59;100.00
80323;BME280;69636;52.372;13.610;2023-08-07T03:23:08;100005.81;;;13.62;100.00
80323;BME280;69636;52.372;13.610;2023-08-07T03:25:35;100003.03;;;13.70;100.00
80323;BME280;69636;52.372;13.610;2023-08-07T03:28:03;100006.31;;;13.72;100.00
80323;BME280;69636;52.372;13.610;2023-08-07T03:30:31;100009.19;;;13.70;100.00
80323;BME280;69636;52.372;13.610;2023-08-07T03:32:58;100003.66;;;13.72;100.00
80323;BME280;69636;52.372;13.610;2023-08-07T03:35:26;100007.34;;;13.71;100.00
80323;BME280;69636;52.372;13.610;2023-08-07T03:37:55;100007.91;;;13.66;100.00
80323;BME280;69636;52.372;13.610;2023-08-07T03:40:22;100015.09;;;13.66;100.00
80323;BME280;69636;52.372;13.610;2023-08-07T03:42:49;100016.75;;;13.67;100.00
80323;BME280;69636;52.372;13.610;2023-08-07T03:45:18;100020.81;;;13.63;100.00
80323;BME280;69636;52.372;13.610;2023-08-07T03:47:45;100015.47;;;13.63;100.00
80323;BME280;69636;52.372;13.610;2023-08-07T03:50:12;100009.88;;;13.57;100.00
80323;BME280;69636;52.372;13.610;2023-08-07T03:52:41;100006.19;;;13.58;100.00
80323;BME280;69636;52.372;13.610;2023-08-07T03:55:10;100008.84;;;13.58;100.00
80323;BME280;69636;52.372;13.610;2023-08-07T03:57:37;100009.69;;;13.59;100.00
80323;BME280;69636;52.372;13.610;2023-08-07T04:00:06;100000.28;;;13.63;100.00
80323;BME280;69636;52.372;13.610;2023-08-07T04:02:34;100009.94;;;13.64;100.00
80323;BME280;69636;52.372;13.610;2023-08-07T04:05:01;100009.38;;;13.69;100.00
80323;BME280;69636;52.372;13.610;2023-08-07T04:07:28;100010.66;;;13.73;100.00
80323;BME280;69636;52.372;13.610;2023-08-07T04:09:56;100007.59;;;13.76;100.00
80323;BME280;69636;52.372;13.610;2023-08-07T04:12:25;100013.75;;;13.76;100.00
80323;BME280;69636;52.372;13.610;2023-08-07T04:14:53;100006.16;;;13.80;100.00
80323;BME280;69636;52.372;13.610;2023-08-07T04:17:21;100007.81;;;13.81;100.00
80323;BME280;69636;52.372;13.610;2023-08-07T04:19:48;100010.56;;;13.87;100.00
80323;BME280;69636;52.372;13.610;2023-08-07T04:22:15;100007.50;;;13.90;100.00
80323;BME280;69636;52.372;13.610;2023-08-07T04:24:43;100011.25;;;13.96;100.00
80323;BME280;69636;52.372;13.610;2023-08-07T04:27:10;100010.22;;;13.97;100.00
80323;BME280;69636;52.372;13.610;2023-08-07T04:29:39;100009.94;;;14.13;100.00
80323;BME280;69636;52.372;13.610;2023-08-07T04:32:07;100013.00;;;14.10;100.00
80323;BME280;69636;52.372;13.610;2023-08-07T04:34:34;100003.31;;;14.09;100.00
80323;BME280;69636;52.372;13.610;2023-08-07T04:37:03;100010.94;;;14.12;100.00
80323;BME280;69636;52.372;13.610;2023-08-07T04:39:30;100016.94;;;14.14;100.00
80323;BME280;69636;52.372;13.610;2023-08-07T04:41:57;100018.44;;;14.23;100.00
80323;BME280;69636;52.372;13.610;2023-08-07T04:44:25;100024.59;;;14.24;100.00
80323;BME280;69636;52.372;13.610;2023-08-07T04:46:53;100017.41;;;14.24;100.00
80323;BME280;69636;52.372;13.610;2023-08-07T04:49:21;100019.91;;;14.33;100.00
80323;BME280;69636;52.372;13.610;2023-08-07T04:51:49;100027.28;;;14.31;100.00
80323;BME280;69636;52.372;13.610;2023-08-07T04:54:16;100024.03;;;14.29;100.00
80323;BME280;69636;52.372;13.610;2023-08-07T04:56:43;100019.28;;;14.31;100.00
80323;BME280;69636;52.372;13.610;2023-08-07T04:59:12;100023.03;;;14.36;100.00
80323;BME280;69636;52.372;13.610;2023-08-07T05:01:39;100030.94;;;14.44;100.00
80323;BME280;69636;52.372;13.610;2023-08-07T05:04:07;100025.16;;;14.41;100.00
80323;BME280;69636;52.372;13.610;2023-08-07T05:06:35;100032.78;;;14.44;100.00
80323;BME280;69636;52.372;13.610;2023-08-07T05:09:02;100037.09;;;14.45;100.00
80323;BME280;69636;52.372;13.610;2023-08-07T05:11:30;100041.66;;;14.51;100.00
80323;BME280;69636;52.372;13.610;2023-08-07T05:13:58;100042.03;;;14.48;100.00
80323;BME280;69636;52.372;13.610;2023-08-07T05:16:25;100041.41;;;14.46;100.00
80323;BME280;69636;52.372;13.610;2023-08-07T05:18:53;100036.69;;;14.48;100.00
80323;BME280;69636;52.372;13.610;2023-08-07T05:21:21;100039.19;;;14.49;100.00
80323;BME280;69636;52.372;13.610;2023-08-07T05:23:49;100037.16;;;14.58;99.79
80323;BME280;69636;52.372;13.610;2023-08-07T05:26:16;100039.81;;;14.51;99.82
80323;BME280;69636;52.372;13.610;2023-08-07T05:28:44;100049.03;;;14.49;99.39
80323;BME280;69636;52.372;13.610;2023-08-07T05:31:11;100052.78;;;14.54;99.59
80323;BME280;69636;52.372;13.610;2023-08-07T05:33:39;100049.88;;;14.56;98.98
80323;BME280;69636;52.372;13.610;2023-08-07T05:36:07;100055.91;;;14.65;99.67
80323;BME280;69636;52.372;13.610;2023-08-07T05:38:35;100059.78;;;14.62;98.71
80323;BME280;69636;52.372;13.610;2023-08-07T05:41:03;100056.56;;;14.73;98.75
80323;BME280;69636;52.372;13.610;2023-08-07T05:43:30;100067.94;;;14.88;98.51
80323;BME280;69636;52.372;13.610;2023-08-07T05:45:57;100073.88;;;14.77;97.21
80323;BME280;69636;52.372;13.610;2023-08-07T05:48:25;100069.78;;;14.88;96.97
80323;BME280;69636;52.372;13.610;2023-08-07T05:50:52;100075.19;;;14.94;96.15
80323;BME280;69636;52.372;13.610;2023-08-07T05:53:21;100073.13;;;14.97;95.97
80323;BME280;69636;52.372;13.610;2023-08-07T05:55:50;100071.88;;;14.92;95.96
80323;BME280;69636;52.372;13.610;2023-08-07T05:58:17;100066.53;;;14.92;95.90
80323;BME280;69636;52.372;13.610;2023-08-07T06:00:46;100064.06;;;14.91;95.28
80323;BME280;69636;52.372;13.610;2023-08-07T06:03:14;100065.91;;;14.90;95.55
80323;BME280;69636;52.372;13.610;2023-08-07T06:05:41;100063.00;;;14.85;95.71
80323;BME280;69636;52.372;13.610;2023-08-07T06:08:09;100073.09;;;14.90;96.01
80323;BME280;69636;52.372;13.610;2023-08-07T06:10:37;100067.56;;;14.91;95.98
80323;BME280;69636;52.372;13.610;2023-08-07T06:13:06;100083.41;;;14.93;95.17
80323;BME280;69636;52.372;13.610;2023-08-07T06:15:33;100089.66;;;15.07;95.38
80323;BME280;69636;52.372;13.610;2023-08-07T06:18:01;100087.56;;;15.09;94.13
80323;BME280;69636;52.372;13.610;2023-08-07T06:20:28;100087.59;;;15.15;94.31
80323;BME280;69636;52.372;13.610;2023-08-07T06:22:56;100089.72;;;15.26;93.68
80323;BME280;69636;52.372;13.610;2023-08-07T06:25:23;100096.50;;;15.22;93.68
80323;BME280;69636;52.372;13.610;2023-08-07T06:27:50;100099.41;;;15.27;93.23
80323;BME280;69636;52.372;13.610;2023-08-07T06:30:19;100095.69;;;15.28;92.70
80323;BME280;69636;52.372;13.610;2023-08-07T06:32:46;100100.03;;;15.30;93.05
80323;BME280;69636;52.372;13.610;2023-08-07T06:35:14;100097.19;;;15.44;92.98
80323;BME280;69636;52.372;13.610;2023-08-07T06:37:41;100109.56;;;15.52;91.56
80323;BME280;69636;52.372;13.610;2023-08-07T06:40:09;100103.44;;;15.65;91.62
80323;BME280;69636;52.372;13.610;2023-08-07T06:42:37;100113.75;;;15.68;91.48
80323;BME280;69636;52.372;13.610;2023-08-07T06:45:05;100115.00;;;15.72;91.00
80323;BME280;69636;52.372;13.610;2023-08-07T06:47:34;100111.09;;;15.74;90.12
80323;BME280;69636;52.372;13.610;2023-08-07T06:50:01;100107.59;;;15.87;90.69
80323;BME280;69636;52.372;13.610;2023-08-07T06:52:29;100112.13;;;15.86;90.43
80323;BME280;69636;52.372;13.610;2023-08-07T06:54:56;100117.09;;;15.89;88.52
80323;BME280;69636;52.372;13.610;2023-08-07T06:57:24;100122.03;;;15.92;87.40
80323;BME280;69636;52.372;13.610;2023-08-07T06:59:51;100106.81;;;16.00;86.82
80323;BME280;69636;52.372;13.610;2023-08-07T07:02:19;100120.00;;;16.14;86.34
80323;BME280;69636;52.372;13.610;2023-08-07T07:04:47;100119.59;;;16.17;85.04
80323;BME280;69636;52.372;13.610;2023-08-07T07:07:15;100115.06;;;16.24;84.41
80323;BME280;69636;52.372;13.610;2023-08-07T07:09:43;100114.66;;;16.27;84.36
80323;BME280;69636;52.372;13.610;2023-08-07T07:12:10;100117.53;;;16.39;83.39
80323;BME280;69636;52.372;13.610;2023-08-07T07:14:37;100118.75;;;16.63;83.31
80323;BME280;69636;52.372;13.610;2023-08-07T07:17:05;100118.16;;;16.74;82.55
80323;BME280;69636;52.372;13.610;2023-08-07T07:19:32;100119.34;;;16.91;82.01
80323;BME280;69636;52.372;13.610;2023-08-07T07:22:01;100115.03;;;16.90;81.59
80323;BME280;69636;52.372;13.610;2023-08-07T07:24:28;100126.97;;;16.94;81.65
80323;BME280;69636;52.372;13.610;2023-08-07T07:26:55;100136.03;;;17.00;81.10
80323;BME280;69636;52.372;13.610;2023-08-07T07:29:23;100123.25;;;17.09;79.24
80323;BME280;69636;52.372;13.610;2023-08-07T07:31:50;100136.22;;;17.12;79.71
80323;BME280;69636;52.372;13.610;2023-08-07T07:34:18;100128.59;;;17.09;79.89
80323;BME280;69636;52.372;13.610;2023-08-07T07:36:45;100141.41;;;17.07;79.90
80323;BME280;69636;52.372;13.610;2023-08-07T07:39:14;100135.97;;;17.20;79.76
80323;BME280;69636;52.372;13.610;2023-08-07T07:41:41;100138.78;;;17.45;79.64
80323;BME280;69636;52.372;13.610;2023-08-07T07:44:08;100147.63;;;17.52;78.89
80323;BME280;69636;52.372;13.610;2023-08-07T07:46:36;100148.91;;;17.43;78.52
80323;BME280;69636;52.372;13.610;2023-08-07T07:49:03;100152.03;;;17.33;78.39
80323;BME280;69636;52.372;13.610;2023-08-07T07:51:30;100148.16;;;17.16;77.88
80323;BME280;69636;52.372;13.610;2023-08-07T07:53:58;100156.38;;;17.27;77.85
80323;BME280;69636;52.372;13.610;2023-08-07T07:56:43;100159.91;;;17.28;78.00
80323;BME280;69636;52.372;13.610;2023-08-07T07:59:11;100164.84;;;17.31;78.03
80323;BME280;69636;52.372;13.610;2023-08-07T08:01:38;100165.06;;;17.29;78.28
80323;BME280;69636;52.372;13.610;2023-08-07T08:04:06;100163.19;;;17.30;77.09
80323;BME280;69636;52.372;13.610;2023-08-07T08:06:33;100165.47;;;17.33;78.64
80323;BME280;69636;52.372;13.610;2023-08-07T08:09:00;100171.88;;;17.25;77.39
80323;BME280;69636;52.372;13.610;2023-08-07T08:11:28;100164.38;;;17.47;77.53
80323;BME280;69636;52.372;13.610;2023-08-07T08:13:57;100168.28;;;17.51;76.60
80323;BME280;69636;52.372;13.610;2023-08-07T08:16:24;100169.78;;;17.34;76.13
80323;BME280;69636;52.372;13.610;2023-08-07T08:18:51;100170.16;;;17.44;76.26
80323;BME280;69636;52.372;13.610;2023-08-07T08:21:19;100179.38;;;17.68;76.06
80323;BME280;69636;52.372;13.610;2023-08-07T08:23:46;100172.97;;;17.69;74.33
80323;BME280;69636;52.372;13.610;2023-08-07T08:26:13;100173.78;;;17.70;75.24
80323;BME280;69636;52.372;13.610;2023-08-07T08:28:41;100180.34;;;17.87;75.31
80323;BME280;69636;52.372;13.610;2023-08-07T08:31:09;100176.66;;;17.75;74.86
80323;BME280;69636;52.372;13.610;2023-08-07T08:33:37;100178.59;;;17.54;75.72
80323;BME280;69636;52.372;13.610;2023-08-07T08:36:04;100177.97;;;17.66;75.25
80323;BME280;69636;52.372;13.610;2023-08-07T08:38:31;100176.31;;;17.51;76.72
80323;BME280;69636;52.372;13.610;2023-08-07T08:41:01;100179.06;;;17.38;78.47
80323;BME280;69636;52.372;13.610;2023-08-07T08:43:34;100184.06;;;17.21;78.37
80323;BME280;69636;52.372;13.610;2023-08-07T08:46:03;100177.66;;;17.29;78.99
80323;BME280;69636;52.372;13.610;2023-08-07T08:48:34;100190.00;;;17.37;78.32
80323;BME280;69636;52.372;13.610;2023-08-07T08:51:03;100187.03;;;17.58;78.22
80323;BME280;69636;52.372;13.610;2023-08-07T08:53:32;100199.03;;;18.00;77.72
80323;BME280;69636;52.372;13.610;2023-08-07T08:56:00;100189.13;;;18.01;76.66
80323;BME280;69636;52.372;13.610;2023-08-07T08:58:28;100191.41;;;17.97;76.13
80323;BME280;69636;52.372;13.610;2023-08-07T09:00:55;100174.22;;;17.60;77.42
80323;BME280;69636;52.372;13.610;2023-08-07T09:03:24;100199.53;;;17.26;79.03
80323;BME280;69636;52.372;13.610;2023-08-07T09:05:54;100195.44;;;16.97;80.88
80323;BME280;69636;52.372;13.610;2023-08-07T09:08:22;100212.78;;;16.75;84.86
80323;BME280;69636;52.372;13.610;2023-08-07T09:10:50;100213.06;;;15.99;91.69
80323;BME280;69636;52.372;13.610;2023-08-07T09:13:22;100212.97;;;15.38;95.36
80323;BME280;69636;52.372;13.610;2023-08-07T09:15:50;100206.56;;;15.26;95.59
80323;BME280;69636;52.372;13.610;2023-08-07T09:18:18;100204.81;;;15.46;96.17
80323;BME280;69636;52.372;13.610;2023-08-07T09:20:45;100214.94;;;16.12;96.26
80323;BME280;69636;52.372;13.610;2023-08-07T09:23:14;100181.66;;;16.60;94.97
80323;BME280;69636;52.372;13.610;2023-08-07T09:25:42;100198.34;;;16.56;94.38
80323;BME280;69636;52.372;13.610;2023-08-07T09:28:09;100196.88;;;16.40;93.03
80323;BME280;69636;52.372;13.610;2023-08-07T09:30:37;100193.59;;;16.32;94.07
80323;BME280;69636;52.372;13.610;2023-08-07T09:33:04;100211.06;;;16.21;94.33
80323;BME280;69636;52.372;13.610;2023-08-07T09:35:32;100210.16;;;15.81;95.46
80323;BME280;69636;52.372;13.610;2023-08-07T09:38:00;100208.38;;;15.60;97.70
80323;BME280;69636;52.372;13.610;2023-08-07T09:40:29;100191.59;;;15.38;98.04
80323;BME280;69636;52.372;13.610;2023-08-07T09:42:57;100195.06;;;15.32;98.84
80323;BME280;69636;52.372;13.610;2023-08-07T09:45:26;100216.88;;;15.29;100.00
80323;BME280;69636;52.372;13.610;2023-08-07T09:47:57;100216.56;;;15.52;99.26
80323;BME280;69636;52.372;13.610;2023-08-07T09:50:25;100215.47;;;15.74;99.67
80323;BME280;69636;52.372;13.610;2023-08-07T09:52:53;100220.09;;;16.07;97.47
80323;BME280;69636;52.372;13.610;2023-08-07T09:55:20;100223.22;;;16.23;95.18
80323;BME280;69636;52.372;13.610;2023-08-07T09:57:50;100226.94;;;16.22;93.30
80323;BME280;69636;52.372;13.610;2023-08-07T10:00:19;100216.84;;;16.24;94.62
80323;BME280;69636;52.372;13.610;2023-08-07T10:02:46;100213.56;;;16.29;93.87
80323;BME280;69636;52.372;13.610;2023-08-07T10:05:14;100222.03;;;16.52;92.02
80323;BME280;69636;52.372;13.610;2023-08-07T10:07:42;100218.78;;;16.83;88.51
80323;BME280;69636;52.372;13.610;2023-08-07T10:10:10;100216.69;;;16.99;87.99
80323;BME280;69636;52.372;13.610;2023-08-07T10:12:37;100200.84;;;16.77;84.42
80323;BME280;69636;52.372;13.610;2023-08-07T10:15:07;100221.88;;;16.80;87.08
80323;BME280;69636;52.372;13.610;2023-08-07T10:17:35;100225.59;;;16.79;85.63
80323;BME280;69636;52.372;13.610;2023-08-07T10:20:03;100217.34;;;16.87;85.64
80323;BME280;69636;52.372;13.610;2023-08-07T10:22:32;100216.50;;;17.07;84.19
80323;BME280;69636;52.372;13.610;2023-08-07T10:25:01;100214.38;;;17.15;84.92
80323;BME280;69636;52.372;13.610;2023-08-07T10:27:33;100218.72;;;17.29;82.34
80323;BME280;69636;52.372;13.610;2023-08-07T10:30:06;100226.72;;;17.43;81.56
80323;BME280;69636;52.372;13.610;2023-08-07T10:32:37;100215.56;;;17.46;80.84
80323;BME280;69636;52.372;13.610;2023-08-07T10:35:05;100219.66;;;17.61;79.57
80323;BME280;69636;52.372;13.610;2023-08-07T10:37:38;100201.91;;;17.54;76.88
80323;BME280;69636;52.372;13.610;2023-08-07T10:40:08;100208.06;;;17.68;76.68
80323;BME280;69636;52.372;13.610;2023-08-07T10:42:57;100210.75;;;17.68;76.79
80323;BME280;69636;52.372;13.610;2023-08-07T10:45:25;100205.78;;;17.71;76.28
80323;BME280;69636;52.372;13.610;2023-08-07T10:48:05;100215.06;;;17.82;73.80
80323;BME280;69636;52.372;13.610;2023-08-07T10:50:33;100208.84;;;17.88;76.02
80323;BME280;69636;52.372;13.610;2023-08-07T10:53:02;100208.41;;;17.91;74.42
80323;BME280;69636;52.372;13.610;2023-08-07T10:55:43;100212.88;;;18.04;73.31
80323;BME280;69636;52.372;13.610;2023-08-07T10:58:47;100210.34;;;18.15;73.07
80323;BME280;69636;52.372;13.610;2023-08-07T11:01:20;100216.53;;;18.16;72.97
80323;BME280;69636;52.372;13.610;2023-08-07T11:03:51;100212.34;;;18.20;73.16
80323;BME280;69636;52.372;13.610;2023-08-07T11:06:22;100211.28;;;18.27;72.29
80323;BME280;69636;52.372;13.610;2023-08-07T11:08:50;100209.03;;;18.24;71.50
80323;BME280;69636;52.372;13.610;2023-08-07T11:11:17;100193.25;;;18.35;71.77
80323;BME280;69636;52.372;13.610;2023-08-07T11:13:44;100208.38;;;18.29;72.21
80323;BME280;69636;52.372;13.610;2023-08-07T11:16:12;100211.03;;;18.36;71.51
80323;BME280;69636;52.372;13.610;2023-08-07T11:18:40;100208.53;;;18.41;70.77
80323;BME280;69636;52.372;13.610;2023-08-07T11:21:10;100214.31;;;18.06;69.33
80323;BME280;69636;52.372;13.610;2023-08-07T11:23:39;100207.50;;;18.04;69.83
80323;BME280;69636;52.372;13.610;2023-08-07T11:26:07;100214.91;;;18.08;70.12
80323;BME280;69636;52.372;13.610;2023-08-07T11:28:34;100217.41;;;18.03;70.58
80323;BME280;69636;52.372;13.610;2023-08-07T11:31:01;100217.41;;;18.03;69.44
80323;BME280;69636;52.372;13.610;2023-08-07T11:33:29;100222.28;;;18.19;70.92
80323;BME280;69636;52.372;13.610;2023-08-07T11:35:56;100220.41;;;18.51;70.74
80323;BME280;69636;52.372;13.610;2023-08-07T11:38:32;100221.56;;;18.69;69.77
80323;BME280;69636;52.372;13.610;2023-08-07T11:41:03;100223.06;;;18.58;68.75
80323;BME280;69636;52.372;13.610;2023-08-07T11:43:31;100223.59;;;18.42;69.75
80323;BME280;69636;52.372;13.610;2023-08-07T11:46:00;100222.22;;;18.33;69.63
80323;BME280;69636;52.372;13.610;2023-08-07T11:48:29;100225.56;;;18.21;71.17
80323;BME280;69636;52.372;13.610;2023-08-07T11:50:58;100227.72;;;18.13;71.61
80323;BME280;69636;52.372;13.610;2023-08-07T11:53:26;100215.44;;;17.85;71.38
80323;BME280;69636;52.372;13.610;2023-08-07T11:55:59;100243.44;;;17.65;75.40
80323;BME280;69636;52.372;13.610;2023-08-07T11:58:28;100243.41;;;17.51;76.53
80323;BME280;69636;52.372;13.610;2023-08-07T12:01:03;100239.88;;;17.71;76.27
80323;BME280;69636;52.372;13.610;2023-08-07T12:03:32;100238.16;;;18.27;75.37
80323;BME280;69636;52.372;13.610;2023-08-07T12:06:03;100238.56;;;18.62;74.26
80323;BME280;69636;52.372;13.610;2023-08-07T12:08:34;100230.50;;;18.87;72.80
80323;BME280;69636;52.372;13.610;2023-08-07T12:11:05;100228.78;;;19.18;73.19
80323;BME280;69636;52.372;13.610;2023-08-07T12:13:32;100231.59;;;19.23;72.71
80323;BME280;69636;52.372;13.610;2023-08-07T12:16:01;100227.66;;;18.82;73.36
80323;BME280;69636;52.372;13.610;2023-08-07T12:18:30;100239.78;;;18.67;74.53
80323;BME280;69636;52.372;13.610;2023-08-07T12:20:58;100232.59;;;18.54;76.07
80323;BME280;69636;52.372;13.610;2023-08-07T12:23:26;100228.88;;;18.86;76.94
80323;BME280;69636;52.372;13.610;2023-08-07T12:25:54;100226.25;;;19.41;73.79
80323;BME280;69636;52.372;13.610;2023-08-07T12:28:23;100228.16;;;20.07;71.60
80323;BME280;69636;52.372;13.610;2023-08-07T12:30:51;100220.72;;;20.51;70.55
80323;BME280;69636;52.372;13.610;2023-08-07T12:33:19;100219.78;;;20.57;69.79
80323;BME280;69636;52.372;13.610;2023-08-07T12:35:46;100225.38;;;20.97;67.62
80323;BME280;69636;52.372;13.610;2023-08-07T12:38:13;100221.13;;;20.78;66.35
80323;BME280;69636;52.372;13.610;2023-08-07T12:40:41;100221.34;;;20.34;67.47
80323;BME280;69636;52.372;13.610;2023-08-07T12:43:11;100221.81;;;20.31;67.84
80323;BME280;69636;52.372;13.610;2023-08-07T12:45:39;100219.38;;;19.82;66.86